Latest Weather Observations for Hughenden

IDQ60801

Issued at 10:32 pm EST Tuesday 31 March 2015 (issued every 30 minutes, with the page automatically refreshed every 10 minutes)

About weather observations | Map of weather stations | Latest weather observations for QLD | Other Formats
Station Details ID: 030022 Name: HUGHENDEN AIRPORT Lat: -20.82 Lon: 144.23 Height: 316.4 m
Data from the previous 72 hours. | See also: Recent months at Hughenden
Date/Time
EST
Temp
°C
App
Temp
°C
Dew
Point
Rel
Hum
%
Delta-T
°C
Wind Press
QNH
hPa
Press
MSL
hPa
Rain
since 9 am
mm
Dir
 
Spd
km/h
Gust
km/h
Spd
kts
Gust
kts
31/10:30pm 24.7 22.0 15.6 57 5.6 ENE 24 33 13 18 1016.9 1014.7 0.0
31/10:00pm 24.5 23.3 16.2 60 5.1 E 17 22 9 12 1017.1 1014.9 0.0
31/09:30pm 24.7 22.3 16.4 60 5.2 E 24 32 13 17 1016.9 1014.7 0.0
31/09:00pm 24.9 23.0 16.6 60 5.2 E 22 28 12 15 1016.5 1014.4 0.0
31/08:30pm 25.1 21.9 16.3 58 5.5 E 28 35 15 19 1016.4 1014.3 0.0
31/08:00pm 25.4 20.8 16.0 56 5.8 E 35 44 19 24 1016.2 1014.1 0.0
31/07:30pm 25.7 22.8 16.0 55 6.0 E 26 39 14 21 1016.2 1014.1 0.0
31/07:00pm 25.8 23.0 16.4 56 5.9 ESE 26 37 14 20 1015.7 1013.6 0.0
31/06:30pm 25.5 21.7 16.6 58 5.6 ESE 32 43 17 23 1015.3 1013.2 0.0
31/06:00pm 26.1 21.3 16.6 55 5.9 ESE 37 46 20 25 1014.8 1012.7 0.0
31/05:30pm 25.6 22.5 18.3 64 4.7 ESE 32 43 17 23 1014.5 1012.4 0.0
31/05:00pm 28.4 24.6 16.7 49 7.4 SE 32 46 17 25 1014.3 1012.1 0.0
31/04:30pm 29.5 24.5 16.0 44 8.5 SE 37 52 20 28 1013.6 1011.4 0.0
31/04:03pm 33.5 29.5 14.0 30 12.1 SE 28 48 15 26 1012.8 1010.7 0.0
31/04:00pm 34.6 31.1 13.4 28 13.0 ESE 24 35 13 19 1012.7 1010.6 0.0
31/03:30pm 33.8 31.0 13.3 29 12.6 ESE 20 33 11 18 1012.8 1010.7 0.0
31/03:00pm 34.7 32.7 14.0 28 12.8 ESE 17 24 9 13 1013.2 1011.1 0.0
31/02:30pm 34.7 32.2 14.0 28 12.8 SE 20 32 11 17 1013.7 1011.5 0.0
31/02:00pm 33.5 30.4 13.5 29 12.3 ESE 22 35 12 19 1014.3 1012.1 0.0
31/01:30pm 33.2 30.6 13.8 31 11.9 E 20 32 11 17 1014.8 1012.7 0.0
31/01:00pm 33.3 30.9 14.4 32 11.7 E 20 30 11 16 1015.3 1013.2 0.0
31/12:30pm 33.5 30.4 14.5 31 11.8 E 24 35 13 19 1015.9 1013.8 0.0
31/12:00pm 33.2 30.6 14.8 33 11.5 E 22 35 12 19 1016.6 1014.5 0.0
31/11:30am 32.1 28.9 14.3 34 11.0 ENE 24 32 13 17 1017.3 1015.1 0.0
31/11:00am 31.2 28.6 14.8 37 10.2 ENE 22 41 12 22 1017.7 1015.6 0.0
31/10:30am 31.0 28.2 15.4 38 9.8 NE 24 35 13 19 1018.0 1015.9 0.0
31/10:00am 30.3 28.1 16.0 42 9.0 NE 22 32 12 17 1018.3 1016.2 0.0
31/09:30am 29.0 25.6 15.9 45 8.2 ENE 28 37 15 20 1018.5 1016.4 0.0
31/09:00am 28.3 25.7 15.9 47 7.7 ENE 24 32 13 17 1018.8 1016.7 0.0
31/08:30am 27.1 24.5 15.8 50 7.0 NE 24 32 13 17 1018.5 1016.4 0.0
31/08:00am 26.2 24.2 15.6 52 6.5 ENE 20 28 11 15 1018.1 1016.0 0.0
31/07:30am 25.5 25.0 15.8 55 6.0 ENE 13 17 7 9 1017.9 1015.8 0.0
31/07:00am 24.3 24.9 15.8 59 5.2 E 7 11 4 6 1017.5 1015.4 0.0
31/06:30am 23.7 23.3 15.2 59 5.2 ENE 11 15 6 8 1016.8 1014.6 0.0
31/06:00am 23.9 23.9 15.1 58 5.3 ENE 9 13 5 7 1016.3 1014.2 0.0
31/05:30am 24.3 23.8 15.0 56 5.6 ENE 11 15 6 8 1016.2 1014.1 0.0
31/05:00am 24.6 23.5 14.4 53 6.1 ENE 13 17 7 9 1015.8 1013.7 0.0
31/04:30am 25.0 23.9 14.2 51 6.5 ENE 13 20 7 11 1015.6 1013.5 0.0
31/04:00am 25.1 24.0 14.3 51 6.5 ENE 13 17 7 9 1015.5 1013.4 0.0
31/03:30am 25.5 24.0 14.3 50 6.7 ENE 15 20 8 11 1015.3 1013.2 0.0
31/03:00am 25.9 24.0 14.1 48 7.1 ENE 17 28 9 15 1015.5 1013.4 0.0
31/02:30am 26.5 22.4 13.9 45 7.6 NE 28 39 15 21 1015.8 1013.7 0.0
31/02:00am 26.6 24.5 13.7 45 7.7 ENE 17 24 9 13 1016.2 1014.1 0.0
31/01:30am 27.3 24.8 14.0 44 8.0 NE 20 30 11 16 1016.4 1014.3 0.0
31/01:00am 27.7 24.2 13.3 41 8.6 NE 24 32 13 17 1016.5 1014.4 0.0
31/12:30am 27.7 26.2 14.3 43 8.1 NE 15 20 8 11 1016.8 1014.6 0.0
31/12:00am 28.6 26.9 14.8 43 8.5 ENE 17 20 9 11 1016.8 1014.6 0.0
 
Date/Time
EST
Temp
°C
App
Temp
°C
Dew
Point
Rel
Hum
%
Delta-T
°C
Wind Press
QNH
hPa
Press
MSL
hPa
Rain
since 9 am
mm
Dir
 
Spd
km/h
Gust
km/h
Spd
kts
Gust
kts
30/11:30pm 28.1 27.4 14.3 42 8.4 ESE 11 17 6 9 1016.6 1014.5 0.0
30/11:00pm 29.1 27.7 14.5 41 8.9 ESE 15 20 8 11 1016.8 1014.6 0.0
30/10:30pm 29.5 27.6 14.1 39 9.4 E 17 24 9 13 1016.9 1014.7 0.0
30/10:00pm 29.9 27.9 14.0 37 9.7 E 17 20 9 11 1017.1 1014.9 0.0
30/09:30pm 30.3 28.0 14.0 37 10.0 E 19 24 10 13 1017.0 1014.8 0.0
30/09:00pm 30.8 28.1 13.6 35 10.4 E 20 28 11 15 1017.0 1014.8 0.0
30/08:30pm 31.2 28.5 13.5 34 10.8 E 20 30 11 16 1016.8 1014.6 0.0
30/08:00pm 31.5 28.7 13.3 33 11.0 E 20 28 11 15 1016.5 1014.4 0.0
30/07:30pm 31.8 29.2 13.1 32 11.3 ESE 19 24 10 13 1016.1 1014.0 0.0
30/07:00pm 32.3 30.4 13.0 31 11.7 E 15 20 8 11 1015.8 1013.7 0.0
30/06:30pm 32.8 30.5 12.9 29 12.1 E 17 22 9 12 1015.4 1013.3 0.0
30/06:00pm 33.3 30.8 12.3 28 12.6 E 17 24 9 13 1015.1 1013.0 0.0
30/05:30pm 33.7 30.4 12.7 28 12.7 ESE 22 30 12 16 1014.8 1012.7 0.0
30/05:00pm 34.9 31.3 11.9 24 13.9 ESE 22 30 12 16 1014.5 1012.4 0.0
30/04:30pm 34.8 31.2 11.9 25 13.8 ESE 22 32 12 17 1014.5 1012.4 0.0
30/04:00pm 35.3 32.6 12.9 26 13.7 SE 19 28 10 15 1014.4 1012.2 0.0
30/03:30pm 34.4 30.3 11.5 25 13.7 ESE 24 32 13 17 1014.6 1012.5 0.0
30/03:00pm 34.9 31.3 11.9 24 13.9 ESE 22 33 12 18 1014.6 1012.5 0.0
30/02:30pm 34.3 31.3 12.0 25 13.4 E 19 35 10 19 1014.8 1012.7 0.0
30/02:00pm 35.8 33.2 13.3 26 13.9 E 19 32 10 17 1015.1 1013.0 0.0
30/01:30pm 36.0 33.5 14.1 27 13.7 E 20 32 11 17 1015.6 1013.5 0.0
30/01:00pm 34.1 30.1 13.0 28 12.9 ENE 26 44 14 24 1016.0 1013.9 0.0
30/12:47pm 34.4 31.4 13.8 29 12.7 ESE 22 46 12 25 1016.1 1014.0 0.0
30/12:30pm 34.1 29.3 13.0 28 12.9 E 30 43 16 23 1016.3 1014.2 0.0
30/12:00pm 33.5 29.3 13.5 29 12.3 E 28 35 15 19 1017.1 1014.9 0.0
30/11:30am 32.2 27.4 12.9 31 11.7 E 30 43 16 23 1017.8 1015.7 0.0
30/11:00am 32.3 27.7 13.5 32 11.5 ENE 30 41 16 22 1018.5 1016.4 0.0
30/10:30am 30.5 26.6 13.3 35 10.4 E 26 37 14 20 1018.9 1016.8 0.0
30/10:00am 29.9 26.4 14.4 38 9.5 ENE 26 33 14 18 1019.1 1017.0 0.0
30/09:30am 29.2 25.8 15.7 44 8.4 ENE 28 41 15 22 1019.3 1017.2 0.0
30/09:00am 28.1 25.2 16.1 48 7.5 ENE 26 37 14 20 1019.5 1017.4 0.0
30/08:30am 26.8 23.8 15.8 51 6.8 ENE 26 35 14 19 1019.5 1017.4 0.0
30/08:00am 26.0 23.4 16.0 54 6.2 ENE 24 35 13 19 1019.1 1017.0 0.0
30/07:30am 25.2 23.7 16.3 57 5.5 ENE 19 28 10 15 1018.5 1016.4 0.0
30/07:00am 24.5 23.7 16.2 60 5.1 E 15 22 8 12 1018.2 1016.1 0.0
30/06:30am 24.1 23.3 16.1 61 4.9 ENE 15 20 8 11 1017.9 1015.8 0.0
30/06:00am 24.2 23.3 15.9 59 5.1 ENE 15 20 8 11 1017.6 1015.5 0.0
30/05:30am 24.4 23.5 15.9 59 5.2 ENE 15 22 8 12 1017.3 1015.1 0.0
30/05:00am 24.7 23.8 15.9 58 5.4 ENE 15 22 8 12 1017.0 1014.8 0.0
30/04:30am 24.8 24.3 16.0 58 5.4 ENE 13 17 7 9 1016.8 1014.6 0.0
30/04:00am 25.1 24.5 15.7 56 5.8 ENE 13 15 7 8 1016.8 1014.6 0.0
30/03:30am 25.6 24.3 15.9 55 6.0 ENE 17 20 9 11 1016.6 1014.5 0.0
30/03:00am 26.0 24.7 15.7 53 6.3 ENE 17 22 9 12 1016.5 1014.4 0.0
30/02:30am 26.2 25.1 15.3 51 6.7 ENE 15 20 8 11 1016.4 1014.3 0.0
30/02:00am 26.8 24.8 14.9 48 7.3 NE 19 26 10 14 1016.5 1014.4 0.0
30/01:30am 27.3 24.9 14.3 45 7.9 NE 20 30 11 16 1016.4 1014.3 0.0
30/01:00am 27.8 25.5 13.0 40 8.8 NE 17 22 9 12 1016.6 1014.5 0.0
30/12:30am 28.3 26.9 13.4 40 8.9 ENE 13 17 7 9 1016.4 1014.3 0.0
30/12:00am 28.2 26.6 12.9 38 9.1 ENE 13 13 7 7 1016.6 1014.5 0.0
 
Date/Time
EST
Temp
°C
App
Temp
°C
Dew
Point
Rel
Hum
%
Delta-T
°C
Wind Press
QNH
hPa
Press
MSL
hPa
Rain
since 9 am
mm
Dir
 
Spd
km/h
Gust
km/h
Spd
kts
Gust
kts
29/11:30pm 28.8 27.3 13.1 38 9.4 ENE 13 15 7 8 1017.0 1014.8 0.0
29/11:00pm 29.0 27.9 13.2 37 9.5 ENE 11 15 6 8 1017.2 1015.0 0.0
29/10:30pm 27.7 26.4 12.5 39 9.0 E 11 11 6 6 1017.4 1015.3 0.0
29/10:00pm 28.3 26.8 11.8 36 9.6 E 11 13 6 7 1017.5 1015.4 0.0
29/09:30pm 29.5 27.9 11.5 33 10.5 E 11 15 6 8 1017.3 1015.1 0.0
29/09:00pm 30.0 28.2 12.0 33 10.6 E 13 15 7 8 1017.1 1014.9 0.0
29/08:30pm 29.4 27.8 11.5 33 10.5 E 11 13 6 7 1017.0 1014.8 0.0
29/08:00pm 30.1 28.4 11.1 31 11.1 ESE 11 11 6 6 1017.0 1014.8 0.0
29/07:30pm 31.4 29.3 11.2 29 11.9 ESE 13 17 7 9 1016.6 1014.5 0.0
29/07:00pm 32.2 29.6 10.8 27 12.5 ESE 15 20 8 11 1016.1 1014.0 0.0
29/06:30pm 33.1 29.8 11.0 26 13.0 ESE 19 24 10 13 1015.6 1013.5 0.0
29/06:00pm 34.1 30.7 10.7 24 13.8 E 19 26 10 14 1015.1 1013.0 0.0
29/05:30pm 34.7 31.1 10.5 23 14.3 ESE 20 26 11 14 1014.7 1012.6 0.0
29/05:00pm 35.2 30.9 10.9 23 14.4 ESE 24 30 13 16 1014.6 1012.5 0.0
29/04:30pm 35.7 32.3 10.7 22 14.8 E 19 26 10 14 1014.4 1012.2 0.0
29/04:00pm 36.0 32.1 10.9 22 15.0 E 22 37 12 20 1014.4 1012.2 0.0
29/03:30pm 36.1 31.9 11.0 22 15.0 ESE 24 35 13 19 1014.5 1012.4 0.0
29/03:00pm 35.8 32.1 11.4 23 14.6 E 22 35 12 19 1014.8 1012.7 0.0
29/02:30pm 35.6 32.2 11.3 23 14.5 ESE 20 32 11 17 1015.0 1012.9 0.0
29/02:00pm 35.2 31.1 11.6 24 14.2 E 24 37 13 20 1015.4 1013.3 0.0
29/01:30pm 35.4 31.4 11.7 23 14.3 E 24 37 13 20 1015.9 1013.8 0.0
29/01:00pm 34.6 30.8 12.3 26 13.5 ENE 24 37 13 20 1016.5 1014.4 0.0
29/12:30pm 34.6 30.6 12.9 27 13.2 E 26 35 14 19 1017.2 1015.0 0.0
29/12:00pm 34.0 30.0 12.9 28 12.8 E 26 37 14 20 1017.7 1015.6 0.0
29/11:30am 33.2 28.8 12.8 29 12.4 E 28 35 15 19 1018.1 1016.0 0.0
29/11:00am 32.8 28.6 12.4 29 12.3 E 26 35 14 19 1018.5 1016.4 0.0
29/10:30am 32.1 27.9 12.3 29 11.9 E 26 35 14 19 1018.6 1016.5 0.0
29/10:00am 31.2 28.2 12.5 31 11.2 ENE 20 28 11 15 1018.9 1016.8 0.0
29/09:30am 29.6 26.3 12.9 35 10.0 NE 22 28 12 15 1019.1 1017.0 0.0
29/09:00am 28.5 25.6 14.0 41 8.8 NE 22 33 12 18 1019.0 1016.9 0.0
29/08:30am 27.1 24.1 14.8 47 7.5 ENE 24 32 13 17 1018.8 1016.7 0.0
29/08:00am 26.1 24.4 15.8 53 6.4 ENE 19 26 10 14 1018.6 1016.5 0.0
29/07:30am 25.1 23.9 16.0 57 5.6 ENE 17 20 9 11 1018.1 1016.0 0.0
29/07:00am 23.9 24.0 15.4 59 5.2 E 9 13 5 7 1017.7 1015.6 0.0
29/06:30am 23.8 23.0 15.0 57 5.3 ENE 13 17 7 9 1017.3 1015.1 0.0
29/06:00am 24.1 23.4 15.3 58 5.3 ENE 13 15 7 8 1017.1 1014.9 0.0
29/05:30am 24.2 24.7 14.9 56 5.6 ENE 6 9 3 5 1016.5 1014.4 0.0
29/05:00am 24.6 24.7 14.4 53 6.1 ENE 7 11 4 6 1016.0 1013.9 0.0
29/04:30am 25.3 24.7 14.7 51 6.4 NE 11 17 6 9 1015.8 1013.7 0.0
29/04:00am 25.9 23.8 14.7 50 6.8 NE 19 26 10 14 1015.5 1013.4 0.0
29/03:30am 26.2 24.1 14.6 48 7.0 NE 19 28 10 15 1015.3 1013.2 0.0
29/03:00am 26.5 24.1 14.3 47 7.4 NE 20 30 11 16 1015.2 1013.1 0.0
29/02:30am 26.8 24.3 14.2 46 7.6 NE 20 28 11 15 1015.0 1012.9 0.0
29/02:00am 27.1 24.6 13.4 42 8.2 NE 19 26 10 14 1014.8 1012.7 0.0
29/01:30am 27.4 24.3 12.2 39 8.9 NE 20 28 11 15 1015.1 1013.0 0.0
29/01:00am 25.7 25.1 12.2 43 7.9 E 7 11 4 6 1015.3 1013.2 0.0
29/12:30am 26.1 25.1 12.2 42 8.1 ESE 9 9 5 5 1015.4 1013.3 0.0
29/12:00am 26.8 25.2 11.7 39 8.8 SE 11 11 6 6 1015.5 1013.4 0.0
 
Date/Time
EST
Temp
°C
App
Temp
°C
Dew
Point
Rel
Hum
%
Delta-T
°C
Wind Press
QNH
hPa
Press
MSL
hPa
Rain
since 9 am
mm
Dir
 
Spd
km/h
Gust
km/h
Spd
kts
Gust
kts
28/11:30pm 27.1 25.5 11.6 38 9.0 ESE 11 11 6 6 1015.7 1013.6 0.0
28/11:00pm 27.5 25.9 11.5 37 9.3 ESE 11 13 6 7 1015.7 1013.6 0.0

Other Formats:

Comma delimited format used in spreadsheet applications
http://www.bom.gov.au/fwo/IDQ60801/IDQ60801.94343.axf

JavaScript Object Notation format (JSON) in row-major order
http://www.bom.gov.au/fwo/IDQ60801/IDQ60801.94343.json